createdAt,value
2018-06-27T00:00:00.715Z,13.90
2018-06-27T00:04:57.378Z,14.30
2018-06-27T00:07:25.816Z,13.90
2018-06-27T00:09:54.315Z,13.80
2018-06-27T00:12:22.826Z,15.40
2018-06-27T00:14:51.276Z,15.10
2018-06-27T00:17:19.776Z,14.90
2018-06-27T00:19:48.264Z,16.10
2018-06-27T00:22:16.733Z,15.10
2018-06-27T00:27:13.304Z,14.70
2018-06-27T00:29:41.752Z,15.80
2018-06-27T00:34:38.334Z,15.00
2018-06-27T00:37:06.811Z,14.60
2018-06-27T00:42:03.371Z,14.90
2018-06-27T00:46:59.910Z,15.00
2018-06-27T00:49:28.332Z,14.80
2018-06-27T00:51:56.760Z,14.90
2018-06-27T00:54:25.157Z,15.60
2018-06-27T00:56:53.568Z,15.40
2018-06-27T00:59:21.981Z,15.10
2018-06-27T01:01:50.374Z,15.40
2018-06-27T01:04:18.824Z,15.40
2018-06-27T01:06:47.241Z,14.90
2018-06-27T01:09:15.678Z,14.70
2018-06-27T01:14:12.180Z,15.40
2018-06-27T01:16:40.584Z,14.70
2018-06-27T01:19:09.012Z,14.90
2018-06-27T01:21:37.476Z,14.30
2018-06-27T01:29:02.158Z,14.10
2018-06-27T01:33:58.708Z,14.60
2018-06-27T01:36:27.120Z,13.60
2018-06-27T01:38:55.504Z,14.80
2018-06-27T01:41:24.478Z,14.40
2018-06-27T01:46:21.043Z,14.10
2018-06-27T01:48:49.447Z,13.60
2018-06-27T01:53:46.221Z,14.00
2018-06-27T01:58:42.726Z,14.10
2018-06-27T02:01:11.149Z,14.00
2018-06-27T02:06:07.681Z,14.10
2018-06-27T02:08:36.071Z,13.10
2018-06-27T02:13:32.593Z,12.90
2018-06-27T02:16:01.039Z,14.80
2018-06-27T02:18:29.469Z,14.10
2018-06-27T02:20:57.915Z,13.80
2018-06-27T02:25:54.435Z,14.80
2018-06-27T02:28:22.869Z,14.60
2018-06-27T02:33:24.807Z,14.20
2018-06-27T02:38:21.328Z,13.40
2018-06-27T02:40:49.753Z,14.20
2018-06-27T02:45:46.302Z,14.00
2018-06-27T02:50:42.801Z,14.30
2018-06-27T02:55:39.345Z,14.10
2018-06-27T02:58:07.758Z,14.00
2018-06-27T03:00:36.184Z,14.40
2018-06-27T03:03:04.736Z,14.30
2018-06-27T03:05:33.166Z,13.80
2018-06-27T03:10:29.732Z,13.50
2018-06-27T03:12:58.227Z,12.60
2018-06-27T03:15:26.687Z,14.30
2018-06-27T03:17:55.122Z,13.10
2018-06-27T03:25:20.094Z,13.10
2018-06-27T03:27:48.573Z,13.60
2018-06-27T03:30:17.012Z,12.20
2018-06-27T03:32:45.411Z,12.70
2018-06-27T03:37:42.042Z,12.90
2018-06-27T03:40:10.446Z,13.80
2018-06-27T03:50:03.478Z,13.00
2018-06-27T03:52:32.054Z,12.90
2018-06-27T03:57:28.784Z,13.20
2018-06-27T03:59:57.473Z,13.10
2018-06-27T04:02:26.183Z,12.20
2018-06-27T04:04:54.607Z,13.30
2018-06-27T04:07:23.025Z,12.70
2018-06-27T04:09:51.443Z,13.60
2018-06-27T04:12:19.946Z,14.00
2018-06-27T04:17:16.578Z,12.60
2018-06-27T04:19:45.056Z,13.50
2018-06-27T04:22:13.434Z,13.20
2018-06-27T04:24:41.865Z,12.70
2018-06-27T04:27:10.293Z,13.90
2018-06-27T04:32:06.882Z,13.50
2018-06-27T04:34:35.309Z,13.90
2018-06-27T04:37:03.747Z,13.80
2018-06-27T04:39:32.201Z,14.30
2018-06-27T04:42:00.615Z,13.60
2018-06-27T04:49:25.255Z,12.90
2018-06-27T04:51:53.640Z,13.50
2018-06-27T04:54:22.048Z,14.10
2018-06-27T05:01:46.828Z,14.00
2018-06-27T05:04:15.255Z,13.70
2018-06-27T05:06:43.689Z,14.10
2018-06-27T05:09:12.274Z,13.50
2018-06-27T05:14:08.956Z,14.10
2018-06-27T05:21:33.969Z,14.60
2018-06-27T05:26:30.526Z,14.40
2018-06-27T05:28:58.975Z,15.50
2018-06-27T05:31:27.386Z,14.70
2018-06-27T05:33:55.843Z,14.50
2018-06-27T05:36:24.278Z,15.10
2018-06-27T05:38:52.678Z,15.20
2018-06-27T05:43:49.271Z,15.20
2018-06-27T05:46:17.799Z,15.70
2018-06-27T05:48:46.205Z,14.60
2018-06-27T05:51:14.644Z,15.30
2018-06-27T05:56:11.167Z,15.20
2018-06-27T05:58:39.575Z,16.20
2018-06-27T06:03:36.123Z,15.90
2018-06-27T06:06:04.663Z,15.40
2018-06-27T06:11:01.188Z,15.80
2018-06-27T06:13:29.595Z,16.30
2018-06-27T06:18:26.373Z,16.70
2018-06-27T06:20:54.798Z,17.20
2018-06-27T06:23:23.189Z,16.90
2018-06-27T06:25:51.616Z,16.70
2018-06-27T06:28:20.039Z,16.40
2018-06-27T06:30:48.450Z,17.30
2018-06-27T06:33:16.906Z,16.50
2018-06-27T06:35:45.342Z,17.90
2018-06-27T06:38:13.781Z,17.00
2018-06-27T06:40:42.231Z,17.60
2018-06-27T06:43:10.643Z,18.00
2018-06-27T06:50:35.311Z,19.20
2018-06-27T06:55:32.292Z,19.80
2018-06-27T06:58:00.704Z,19.90
2018-06-27T07:00:29.181Z,19.90
2018-06-27T07:05:25.805Z,19.80
2018-06-27T07:07:54.204Z,20.50
2018-06-27T07:10:22.634Z,20.60
2018-06-27T07:12:51.027Z,20.80
2018-06-27T07:20:15.735Z,18.50
2018-06-27T07:22:44.222Z,19.00
2018-06-27T07:25:12.606Z,18.90
2018-06-27T07:27:41.056Z,19.10
2018-06-27T07:30:09.472Z,18.30
2018-06-27T07:32:37.910Z,20.90
2018-06-27T07:35:06.314Z,20.00
2018-06-27T07:37:34.716Z,20.60
2018-06-27T07:40:03.174Z,20.60
2018-06-27T07:42:31.592Z,19.90
2018-06-27T07:49:56.288Z,19.90
2018-06-27T07:52:24.786Z,19.70
2018-06-27T07:54:53.175Z,20.70
2018-06-27T07:57:21.589Z,20.10
2018-06-27T07:59:50.002Z,19.90
2018-06-27T08:02:18.443Z,19.10
2018-06-27T08:04:46.859Z,19.90
2018-06-27T08:07:15.419Z,19.60
2018-06-27T08:09:43.829Z,20.00
2018-06-27T08:12:12.267Z,19.30
2018-06-27T08:14:40.661Z,19.90
2018-06-27T08:17:09.104Z,20.70
2018-06-27T08:22:05.964Z,21.50
2018-06-27T08:24:34.525Z,21.60
2018-06-27T08:27:02.977Z,21.50
2018-06-27T08:29:31.463Z,23.80
2018-06-27T08:31:59.907Z,23.20
2018-06-27T08:34:28.344Z,22.60
2018-06-27T08:36:56.778Z,22.90
2018-06-27T08:39:25.275Z,23.70
2018-06-27T08:44:21.830Z,21.30
2018-06-27T08:46:50.233Z,21.20
2018-06-27T08:51:46.771Z,20.30
2018-06-27T08:54:15.199Z,19.80
2018-06-27T08:56:43.625Z,20.10
2018-06-27T09:06:36.415Z,21.00
2018-06-27T09:14:03.454Z,19.80
2018-06-27T09:16:31.897Z,19.60
2018-06-27T09:19:00.307Z,20.10
2018-06-27T09:23:57.135Z,19.20
2018-06-27T09:26:25.559Z,18.50
2018-06-27T09:28:53.978Z,19.80
2018-06-27T09:31:22.402Z,19.70
2018-06-27T09:33:50.834Z,19.70
2018-06-27T09:36:19.307Z,18.80
2018-06-27T09:43:43.941Z,19.80
2018-06-27T09:46:12.421Z,19.20
2018-06-27T09:48:40.822Z,19.90
2018-06-27T09:51:09.234Z,19.50
2018-06-27T09:53:37.624Z,19.70
2018-06-27T09:56:06.102Z,20.20
2018-06-27T09:58:34.534Z,19.60
2018-06-27T10:01:03.126Z,20.00
2018-06-27T10:05:59.741Z,20.40
2018-06-27T10:08:28.152Z,20.30
2018-06-27T10:13:24.739Z,20.20
2018-06-27T10:15:53.161Z,19.90
2018-06-27T10:18:21.653Z,19.40
2018-06-27T10:23:18.153Z,17.70
2018-06-27T10:25:46.563Z,17.30
2018-06-27T10:30:43.169Z,15.70
2018-06-27T10:33:13.343Z,16.80
2018-06-27T10:35:41.757Z,15.50
2018-06-27T10:38:10.203Z,16.50
2018-06-27T10:40:38.706Z,16.40
2018-06-27T10:43:07.135Z,15.90
2018-06-27T10:45:35.657Z,17.60
2018-06-27T10:53:00.371Z,17.90
2018-06-27T10:57:56.924Z,20.00
2018-06-27T11:00:25.340Z,20.70
2018-06-27T11:05:21.987Z,22.50
2018-06-27T11:07:50.360Z,21.60
2018-06-27T11:10:18.828Z,21.00
2018-06-27T11:12:47.506Z,22.40
2018-06-27T11:15:15.995Z,22.10
2018-06-27T11:17:44.411Z,22.90
2018-06-27T11:22:40.983Z,23.40
2018-06-27T11:25:09.468Z,24.00
2018-06-27T11:27:37.896Z,22.90
2018-06-27T11:35:02.696Z,23.20
2018-06-27T11:37:31.404Z,24.20
2018-06-27T11:39:59.959Z,24.50
2018-06-27T11:44:56.580Z,23.20
2018-06-27T11:47:25.023Z,22.40
2018-06-27T11:49:53.447Z,22.40
2018-06-27T11:54:54.359Z,21.30
2018-06-27T11:57:22.777Z,21.60
2018-06-27T11:59:51.385Z,22.30
2018-06-27T12:02:19.933Z,22.00
2018-06-27T12:04:48.371Z,22.60
2018-06-27T12:07:16.836Z,23.60
2018-06-27T12:12:13.396Z,22.90
2018-06-27T12:24:34.568Z,17.70
2018-06-27T12:27:02.991Z,18.30
2018-06-27T12:31:59.531Z,17.10
2018-06-27T12:34:27.963Z,16.70
2018-06-27T12:36:56.421Z,15.80
2018-06-27T12:39:24.991Z,15.30
2018-06-27T12:44:21.627Z,15.60
2018-06-27T12:46:50.101Z,15.30
2018-06-27T12:49:18.524Z,16.70
2018-06-27T12:56:43.280Z,15.50
2018-06-27T12:59:11.758Z,15.80
2018-06-27T13:01:40.229Z,15.70
2018-06-27T13:04:08.702Z,16.50
2018-06-27T13:06:37.297Z,15.30
2018-06-27T13:11:36.013Z,16.00
2018-06-27T13:16:32.759Z,16.90
2018-06-27T13:19:01.364Z,17.50
2018-06-27T13:21:29.863Z,17.20
2018-06-27T13:26:26.648Z,16.70
2018-06-27T13:28:55.202Z,17.00
2018-06-27T13:31:23.935Z,16.50
2018-06-27T13:33:52.387Z,17.00
2018-06-27T13:38:49.000Z,17.30
2018-06-27T13:48:42.148Z,18.10
2018-06-27T13:51:10.661Z,18.20
2018-06-27T13:53:39.156Z,18.10
2018-06-27T13:56:07.585Z,19.70
2018-06-27T13:58:36.316Z,19.10
2018-06-27T14:01:04.782Z,18.20
2018-06-27T14:03:33.249Z,19.00
2018-06-27T14:06:01.679Z,19.30
2018-06-27T14:08:30.142Z,19.30
2018-06-27T14:18:23.169Z,17.60
2018-06-27T14:20:51.567Z,20.10
2018-06-27T14:23:20.400Z,19.40
2018-06-27T14:25:49.029Z,20.60
2018-06-27T14:28:17.488Z,20.40
2018-06-27T14:30:45.931Z,20.40
2018-06-27T14:33:14.536Z,20.60
2018-06-27T14:38:11.299Z,21.70
2018-06-27T14:40:39.915Z,20.40
2018-06-27T14:43:08.374Z,22.00
2018-06-27T14:45:36.864Z,22.10
2018-06-27T14:48:05.408Z,22.00
2018-06-27T14:50:33.862Z,21.80
2018-06-27T14:55:30.515Z,21.40
2018-06-27T14:57:59.329Z,21.50
2018-06-27T15:00:27.802Z,21.20
2018-06-27T15:02:56.277Z,21.30
2018-06-27T15:05:24.816Z,20.30
2018-06-27T15:07:53.270Z,19.50
2018-06-27T15:10:21.741Z,20.20
2018-06-27T15:12:50.146Z,20.00
2018-06-27T15:15:18.681Z,20.50
2018-06-27T15:22:43.616Z,20.40
2018-06-27T15:25:12.169Z,19.60
2018-06-27T15:27:40.625Z,19.40
2018-06-27T15:32:37.468Z,19.90
2018-06-27T15:35:06.393Z,19.90
2018-06-27T15:37:34.857Z,20.70
2018-06-27T15:42:31.657Z,20.60
2018-06-27T15:47:28.368Z,20.10
2018-06-27T15:49:57.044Z,21.20
2018-06-27T15:54:53.811Z,20.60
2018-06-27T15:57:23.473Z,19.20
2018-06-27T15:59:53.987Z,18.00
2018-06-27T16:02:24.949Z,19.70
2018-06-27T16:04:53.723Z,19.30
2018-06-27T16:07:22.181Z,20.50
2018-06-27T16:12:19.798Z,19.70
2018-06-27T16:17:16.964Z,19.70
2018-06-27T16:22:13.569Z,19.60
2018-06-27T16:24:42.447Z,19.40
2018-06-27T16:32:07.755Z,19.70
2018-06-27T16:34:36.248Z,19.60
2018-06-27T16:39:32.944Z,19.20
2018-06-27T16:42:02.381Z,19.40
2018-06-27T16:44:30.903Z,18.20
2018-06-27T16:49:27.686Z,18.70
2018-06-27T16:51:56.295Z,19.70
2018-06-27T16:59:21.592Z,18.60
2018-06-27T17:04:18.398Z,19.40
2018-06-27T17:09:15.219Z,19.10
2018-06-27T17:11:43.929Z,18.60
2018-06-27T17:14:13.417Z,19.80
2018-06-27T17:16:42.092Z,19.50
2018-06-27T17:19:10.995Z,18.80
2018-06-27T17:21:39.999Z,20.20
2018-06-27T17:24:08.768Z,18.50
2018-06-27T17:26:37.395Z,19.50
2018-06-27T17:29:06.165Z,18.80
2018-06-27T17:31:35.127Z,19.20
2018-06-27T17:34:03.747Z,19.30
2018-06-27T17:36:32.918Z,19.40
2018-06-27T17:41:30.559Z,19.50
2018-06-27T17:43:59.666Z,18.60
2018-06-27T17:46:28.511Z,19.10
2018-06-27T17:48:57.418Z,19.30
2018-06-27T17:51:27.473Z,19.20
2018-06-27T17:53:56.338Z,18.90
2018-06-27T17:56:24.989Z,17.20
2018-06-27T17:58:56.386Z,18.40
2018-06-27T18:01:25.071Z,19.70
2018-06-27T18:03:53.611Z,19.10
2018-06-27T18:06:22.109Z,17.90
2018-06-27T18:08:50.814Z,18.00
2018-06-27T18:13:48.412Z,17.30
2018-06-27T18:16:16.949Z,17.50
2018-06-27T18:18:47.123Z,17.70
2018-06-27T18:23:46.540Z,16.80
2018-06-27T18:28:43.865Z,18.60
2018-06-27T18:33:42.412Z,18.00
2018-06-27T18:36:11.648Z,18.60
2018-06-27T18:38:40.195Z,17.90
2018-06-27T18:41:09.981Z,18.00
2018-06-27T18:48:41.285Z,17.50
2018-06-27T18:51:11.951Z,17.80
2018-06-27T18:56:10.675Z,17.40
2018-06-27T18:58:40.329Z,18.30
2018-06-27T19:13:33.002Z,17.90
2018-06-27T19:18:30.675Z,17.90
2018-06-27T19:20:59.305Z,17.10
2018-06-27T19:25:58.992Z,17.00
2018-06-27T19:33:24.418Z,18.00
2018-06-27T19:35:53.439Z,17.20
2018-06-27T19:38:25.170Z,17.30
2018-06-27T19:40:54.458Z,17.20
2018-06-27T19:43:24.732Z,17.40
2018-06-27T19:45:55.049Z,16.40
2018-06-27T19:48:25.042Z,15.10
2018-06-27T19:50:54.799Z,15.40
2018-06-27T19:53:25.484Z,14.40
2018-06-27T20:00:52.876Z,14.80
2018-06-27T20:05:49.763Z,13.90
2018-06-27T20:10:47.608Z,14.10
2018-06-27T20:13:16.151Z,15.00
2018-06-27T20:15:45.532Z,13.90
2018-06-27T20:18:14.127Z,13.60
2018-06-27T20:25:40.647Z,13.40
2018-06-27T20:35:36.951Z,13.30
2018-06-27T20:40:40.875Z,11.60
2018-06-27T20:43:10.197Z,12.10
2018-06-27T20:45:39.557Z,12.30
2018-06-27T20:48:08.513Z,13.50
2018-06-27T20:50:38.189Z,13.00
2018-06-27T20:53:08.591Z,13.10
2018-06-27T20:55:37.249Z,13.60
2018-06-27T21:05:30.483Z,12.20
2018-06-27T21:07:59.147Z,13.40
2018-06-27T21:10:28.006Z,13.30
2018-06-27T21:12:56.809Z,13.50
2018-06-27T21:15:25.265Z,12.90
2018-06-27T21:17:53.720Z,14.30
2018-06-27T21:22:50.363Z,13.40
2018-06-27T21:27:46.942Z,12.90
2018-06-27T21:30:15.429Z,13.70
2018-06-27T21:35:12.028Z,13.50
2018-06-27T21:40:08.587Z,13.30
2018-06-27T21:42:37.021Z,13.40
2018-06-27T21:45:05.573Z,13.80
2018-06-27T21:47:34.078Z,13.00
2018-06-27T21:52:30.651Z,13.40
2018-06-27T21:57:27.199Z,13.40
2018-06-27T22:02:23.948Z,13.70
2018-06-27T22:04:52.339Z,13.30
2018-06-27T22:07:20.768Z,13.10
2018-06-27T22:09:49.185Z,13.40
2018-06-27T22:12:17.694Z,13.90
2018-06-27T22:14:46.115Z,13.70
2018-06-27T22:22:10.789Z,13.90
2018-06-27T22:24:39.221Z,14.20
2018-06-27T22:32:04.045Z,12.50
2018-06-27T22:34:32.623Z,13.20
2018-06-27T22:37:01.012Z,13.60
2018-06-27T22:39:29.497Z,13.60
2018-06-27T22:41:57.924Z,12.60
2018-06-27T22:44:26.343Z,12.40
2018-06-27T22:46:54.789Z,13.30
2018-06-27T22:49:23.249Z,13.40
2018-06-27T22:51:51.651Z,12.40
2018-06-27T22:59:16.337Z,13.50
2018-06-27T23:01:44.765Z,13.00
2018-06-27T23:04:13.245Z,12.90
2018-06-27T23:06:41.777Z,14.00
2018-06-27T23:09:10.818Z,13.30
2018-06-27T23:11:39.295Z,13.70
2018-06-27T23:14:08.062Z,12.90
2018-06-27T23:16:36.449Z,12.30
2018-06-27T23:19:05.109Z,13.20
2018-06-27T23:26:29.822Z,13.30
2018-06-27T23:28:58.334Z,13.10
2018-06-27T23:33:54.923Z,13.60
2018-06-27T23:38:51.480Z,12.50
2018-06-27T23:41:19.906Z,12.90
2018-06-27T23:43:48.336Z,13.10
2018-06-27T23:46:16.830Z,13.60
2018-06-27T23:48:45.269Z,13.30
2018-06-27T23:53:41.804Z,13.50
2018-06-27T23:58:38.370Z,12.90
